Pouch Cove, Canada
Current Conditions -  °F | °C
As of 7:00 AM on Thursday 23 Oct 2014 (Local Time) from CYYT Reporting Station
Broken Clouds Broken Clouds  
Wind Chill: 39°   Ceiling: 23000
Heat Index: 39°   Visibility: 15mi
Dew Point: 36°   Wind: 0mph
Humidity: 87%   Direction: NA
Pressure: 30.4"   Gusts: NA
Location:  47.76°N, 52.76°W
Report Text: CYYT 230900Z 00000KT 15SM BKN230 04/02 A3040 RMK CI6 SLP301
Loading
Personal Weather Stations






























Interactive Weather Map New forecast layout! Learn more

10-Day Weather Forecast

Advertisements
Track Severe Weather on mobile